sensor_id;sensor_type;location;lat;lon;timestamp;pressure;altitude;pressure_sealevel;temperature;humidity
16451;BME280;12243;42.708;23.310;2023-09-12T00:00:17;95190.91;;;16.11;73.56
16451;BME280;12243;42.708;23.310;2023-09-12T00:02:44;95202.16;;;16.04;74.15
16451;BME280;12243;42.708;23.310;2023-09-12T00:05:10;95194.47;;;16.10;74.04
16451;BME280;12243;42.708;23.310;2023-09-12T00:07:39;95195.34;;;16.11;74.14
16451;BME280;12243;42.708;23.310;2023-09-12T00:10:08;95200.38;;;16.04;74.98
16451;BME280;12243;42.708;23.310;2023-09-12T00:12:35;95200.03;;;16.07;74.50
16451;BME280;12243;42.708;23.310;2023-09-12T00:15:02;95196.59;;;16.07;75.00
16451;BME280;12243;42.708;23.310;2023-09-12T00:17:29;95197.97;;;16.11;75.20
16451;BME280;12243;42.708;23.310;2023-09-12T00:19:56;95199.72;;;16.10;74.96
16451;BME280;12243;42.708;23.310;2023-09-12T00:22:23;95203.66;;;16.06;75.32
16451;BME280;12243;42.708;23.310;2023-09-12T00:24:50;95203.97;;;16.03;75.19
16451;BME280;12243;42.708;23.310;2023-09-12T00:27:18;95204.63;;;15.97;76.03
16451;BME280;12243;42.708;23.310;2023-09-12T00:29:45;95208.78;;;16.08;75.84
16451;BME280;12243;42.708;23.310;2023-09-12T00:32:12;95208.31;;;15.86;76.34
16451;BME280;12243;42.708;23.310;2023-09-12T00:34:39;95205.31;;;15.73;77.00
16451;BME280;12243;42.708;23.310;2023-09-12T00:37:06;95210.38;;;15.75;77.23
16451;BME280;12243;42.708;23.310;2023-09-12T00:39:33;95214.31;;;15.70;77.43
16451;BME280;12243;42.708;23.310;2023-09-12T00:41:59;95218.50;;;15.63;77.40
16451;BME280;12243;42.708;23.310;2023-09-12T00:44:28;95214.69;;;15.58;78.23
16451;BME280;12243;42.708;23.310;2023-09-12T00:46:55;95212.81;;;15.50;77.91
16451;BME280;12243;42.708;23.310;2023-09-12T00:49:23;95214.75;;;15.48;77.59
16451;BME280;12243;42.708;23.310;2023-09-12T00:51:51;95213.72;;;15.41;78.02
16451;BME280;12243;42.708;23.310;2023-09-12T00:54:18;95213.72;;;15.41;77.96
16451;BME280;12243;42.708;23.310;2023-09-12T00:56:45;95216.69;;;15.38;78.33
16451;BME280;12243;42.708;23.310;2023-09-12T00:59:13;95218.97;;;15.41;78.49
16451;BME280;12243;42.708;23.310;2023-09-12T01:01:43;95231.28;;;15.40;78.28
16451;BME280;12243;42.708;23.310;2023-09-12T01:04:10;95227.19;;;15.38;77.85
16451;BME280;12243;42.708;23.310;2023-09-12T01:06:38;95219.41;;;15.28;78.21
16451;BME280;12243;42.708;23.310;2023-09-12T01:09:05;95228.31;;;15.17;79.07
16451;BME280;12243;42.708;23.310;2023-09-12T01:11:33;95229.16;;;15.18;78.83
16451;BME280;12243;42.708;23.310;2023-09-12T01:14:00;95227.09;;;15.30;78.72
16451;BME280;12243;42.708;23.310;2023-09-12T01:16:27;95226.19;;;15.39;78.44
16451;BME280;12243;42.708;23.310;2023-09-12T01:18:55;95229.59;;;15.31;78.80
16451;BME280;12243;42.708;23.310;2023-09-12T01:21:38;95230.13;;;15.35;78.60
16451;BME280;12243;42.708;23.310;2023-09-12T01:24:21;95225.28;;;15.30;78.35
16451;BME280;12243;42.708;23.310;2023-09-12T01:29:33;95231.75;;;15.36;77.97
16451;BME280;12243;42.708;23.310;2023-09-12T01:32:03;95222.44;;;15.23;78.56
16451;BME280;12243;42.708;23.310;2023-09-12T01:34:30;95233.47;;;15.27;78.98
16451;BME280;12243;42.708;23.310;2023-09-12T01:36:57;95227.69;;;15.23;78.97
16451;BME280;12243;42.708;23.310;2023-09-12T01:39:24;95231.84;;;15.08;79.96
16451;BME280;12243;42.708;23.310;2023-09-12T01:41:52;95234.84;;;14.95;80.71
16451;BME280;12243;42.708;23.310;2023-09-12T01:44:20;95241.28;;;15.01;79.91
16451;BME280;12243;42.708;23.310;2023-09-12T01:46:53;95237.31;;;14.97;80.24
16451;BME280;12243;42.708;23.310;2023-09-12T01:49:22;95236.63;;;14.95;79.90
16451;BME280;12243;42.708;23.310;2023-09-12T01:51:51;95240.59;;;14.99;79.58
16451;BME280;12243;42.708;23.310;2023-09-12T01:54:19;95229.38;;;14.89;79.97
16451;BME280;12243;42.708;23.310;2023-09-12T01:56:47;95236.50;;;14.79;80.99
16451;BME280;12243;42.708;23.310;2023-09-12T01:59:14;95243.09;;;14.83;80.86
16451;BME280;12243;42.708;23.310;2023-09-12T02:01:41;95238.34;;;14.68;81.01
16451;BME280;12243;42.708;23.310;2023-09-12T02:04:10;95241.94;;;14.67;81.29
16451;BME280;12243;42.708;23.310;2023-09-12T02:06:36;95250.53;;;14.60;81.46
16451;BME280;12243;42.708;23.310;2023-09-12T02:09:04;95248.72;;;14.60;81.70
16451;BME280;12243;42.708;23.310;2023-09-12T02:11:30;95242.53;;;14.61;82.07
16451;BME280;12243;42.708;23.310;2023-09-12T02:13:57;95246.88;;;14.70;81.26
16451;BME280;12243;42.708;23.310;2023-09-12T02:16:24;95246.88;;;14.70;81.00
16451;BME280;12243;42.708;23.310;2023-09-12T02:18:51;95248.84;;;14.68;81.53
16451;BME280;12243;42.708;23.310;2023-09-12T02:21:19;95243.41;;;14.52;82.13
16451;BME280;12243;42.708;23.310;2023-09-12T02:23:46;95242.72;;;14.50;82.05
16451;BME280;12243;42.708;23.310;2023-09-12T02:26:13;95244.53;;;14.40;82.33
16451;BME280;12243;42.708;23.310;2023-09-12T02:28:39;95246.56;;;14.18;83.50
16451;BME280;12243;42.708;23.310;2023-09-12T02:31:09;95243.00;;;14.19;84.01
16451;BME280;12243;42.708;23.310;2023-09-12T02:33:37;95253.78;;;14.06;84.57
16451;BME280;12243;42.708;23.310;2023-09-12T02:36:04;95253.63;;;14.08;84.76
16451;BME280;12243;42.708;23.310;2023-09-12T02:38:33;95249.59;;;14.23;84.15
16451;BME280;12243;42.708;23.310;2023-09-12T02:41:00;95247.34;;;14.28;83.21
16451;BME280;12243;42.708;23.310;2023-09-12T02:43:28;95243.91;;;14.28;82.52
16451;BME280;12243;42.708;23.310;2023-09-12T02:45:55;95249.03;;;14.29;83.07
16451;BME280;12243;42.708;23.310;2023-09-12T02:48:22;95249.56;;;14.33;83.10
16451;BME280;12243;42.708;23.310;2023-09-12T02:50:49;95251.72;;;14.38;82.63
16451;BME280;12243;42.708;23.310;2023-09-12T02:53:16;95253.28;;;14.30;83.41
16451;BME280;12243;42.708;23.310;2023-09-12T02:55:44;95251.53;;;14.21;84.13
16451;BME280;12243;42.708;23.310;2023-09-12T02:58:11;95249.88;;;14.20;84.52
16451;BME280;12243;42.708;23.310;2023-09-12T03:00:38;95245.47;;;14.21;84.66
16451;BME280;12243;42.708;23.310;2023-09-12T03:03:06;95246.84;;;14.15;84.52
16451;BME280;12243;42.708;23.310;2023-09-12T03:05:34;95249.38;;;14.07;85.04
16451;BME280;12243;42.708;23.310;2023-09-12T03:08:02;95250.69;;;14.21;84.90
16451;BME280;12243;42.708;23.310;2023-09-12T03:10:29;95255.47;;;14.35;83.42
16451;BME280;12243;42.708;23.310;2023-09-12T03:12:57;95257.53;;;14.32;83.35
16451;BME280;12243;42.708;23.310;2023-09-12T03:15:24;95252.84;;;14.35;83.40
16451;BME280;12243;42.708;23.310;2023-09-12T03:17:51;95251.94;;;14.26;84.15
16451;BME280;12243;42.708;23.310;2023-09-12T03:20:20;95260.19;;;14.22;84.00
16451;BME280;12243;42.708;23.310;2023-09-12T03:22:47;95258.59;;;14.11;84.72
16451;BME280;12243;42.708;23.310;2023-09-12T03:25:14;95259.84;;;14.07;84.90
16451;BME280;12243;42.708;23.310;2023-09-12T03:27:41;95259.03;;;14.06;85.06
16451;BME280;12243;42.708;23.310;2023-09-12T03:30:10;95264.72;;;14.02;85.92
16451;BME280;12243;42.708;23.310;2023-09-12T03:32:37;95252.97;;;14.06;85.69
16451;BME280;12243;42.708;23.310;2023-09-12T03:35:05;95254.31;;;14.10;85.55
16451;BME280;12243;42.708;23.310;2023-09-12T03:37:32;95257.66;;;14.12;85.55
16451;BME280;12243;42.708;23.310;2023-09-12T03:39:59;95257.03;;;14.18;84.65
16451;BME280;12243;42.708;23.310;2023-09-12T03:42:26;95265.09;;;14.07;85.06
16451;BME280;12243;42.708;23.310;2023-09-12T03:44:52;95259.75;;;13.99;85.47
16451;BME280;12243;42.708;23.310;2023-09-12T03:47:21;95262.38;;;13.99;85.21
16451;BME280;12243;42.708;23.310;2023-09-12T03:49:48;95261.22;;;14.01;85.60
16451;BME280;12243;42.708;23.310;2023-09-12T03:52:14;95261.00;;;13.95;85.86
16451;BME280;12243;42.708;23.310;2023-09-12T03:54:41;95268.72;;;13.87;86.30
16451;BME280;12243;42.708;23.310;2023-09-12T03:57:08;95269.97;;;13.82;86.56
16451;BME280;12243;42.708;23.310;2023-09-12T03:59:35;95259.34;;;13.94;86.38
16451;BME280;12243;42.708;23.310;2023-09-12T04:02:02;95264.03;;;13.90;86.22
16451;BME280;12243;42.708;23.310;2023-09-12T04:04:31;95263.22;;;13.90;86.34
16451;BME280;12243;42.708;23.310;2023-09-12T04:06:58;95261.88;;;13.76;86.79
16451;BME280;12243;42.708;23.310;2023-09-12T04:09:25;95268.75;;;13.77;87.11
16451;BME280;12243;42.708;23.310;2023-09-12T04:11:54;95269.84;;;13.84;86.79
16451;BME280;12243;42.708;23.310;2023-09-12T04:14:21;95264.84;;;13.91;86.42
16451;BME280;12243;42.708;23.310;2023-09-12T04:16:48;95268.06;;;13.85;86.58
16451;BME280;12243;42.708;23.310;2023-09-12T04:19:15;95275.03;;;13.94;86.09
16451;BME280;12243;42.708;23.310;2023-09-12T04:21:43;95272.88;;;13.89;86.33
16451;BME280;12243;42.708;23.310;2023-09-12T04:24:10;95272.84;;;13.99;85.74
16451;BME280;12243;42.708;23.310;2023-09-12T04:26:38;95276.81;;;14.03;85.54
16451;BME280;12243;42.708;23.310;2023-09-12T04:29:05;95271.97;;;14.08;85.38
16451;BME280;12243;42.708;23.310;2023-09-12T04:31:32;95277.06;;;14.10;85.41
16451;BME280;12243;42.708;23.310;2023-09-12T04:33:58;95272.47;;;14.21;84.51
16451;BME280;12243;42.708;23.310;2023-09-12T04:36:25;95278.59;;;14.12;85.25
16451;BME280;12243;42.708;23.310;2023-09-12T04:38:53;95277.75;;;14.12;85.21
16451;BME280;12243;42.708;23.310;2023-09-12T04:41:20;95280.25;;;14.13;85.37
16451;BME280;12243;42.708;23.310;2023-09-12T04:43:47;95272.75;;;14.18;85.20
16451;BME280;12243;42.708;23.310;2023-09-12T04:46:14;95279.84;;;14.36;84.51
16451;BME280;12243;42.708;23.310;2023-09-12T04:48:41;95280.50;;;14.47;83.91
16451;BME280;12243;42.708;23.310;2023-09-12T04:51:08;95285.00;;;14.65;82.88
16451;BME280;12243;42.708;23.310;2023-09-12T04:53:35;95287.94;;;14.80;81.66
16451;BME280;12243;42.708;23.310;2023-09-12T04:56:05;95286.16;;;14.98;81.20
16451;BME280;12243;42.708;23.310;2023-09-12T04:58:35;95282.75;;;15.15;80.11
16451;BME280;12243;42.708;23.310;2023-09-12T05:01:02;95282.81;;;15.41;78.84
16451;BME280;12243;42.708;23.310;2023-09-12T05:03:29;95290.47;;;15.53;77.87
16451;BME280;12243;42.708;23.310;2023-09-12T05:05:57;95288.72;;;15.61;77.02
16451;BME280;12243;42.708;23.310;2023-09-12T05:08:24;95286.06;;;15.79;76.90
16451;BME280;12243;42.708;23.310;2023-09-12T05:10:51;95292.28;;;15.96;75.79
16451;BME280;12243;42.708;23.310;2023-09-12T05:13:20;95288.47;;;16.16;75.80
16451;BME280;12243;42.708;23.310;2023-09-12T05:15:47;95287.56;;;16.34;74.35
16451;BME280;12243;42.708;23.310;2023-09-12T05:18:14;95287.03;;;16.56;71.61
16451;BME280;12243;42.708;23.310;2023-09-12T05:20:41;95291.19;;;16.67;70.24
16451;BME280;12243;42.708;23.310;2023-09-12T05:23:08;95294.13;;;16.64;70.44
16451;BME280;12243;42.708;23.310;2023-09-12T05:25:35;95293.03;;;16.75;69.92
16451;BME280;12243;42.708;23.310;2023-09-12T05:28:02;95291.75;;;16.87;68.58
16451;BME280;12243;42.708;23.310;2023-09-12T05:30:31;95297.00;;;16.87;68.70
16451;BME280;12243;42.708;23.310;2023-09-12T05:32:58;95295.19;;;16.87;69.14
16451;BME280;12243;42.708;23.310;2023-09-12T05:35:25;95297.69;;;16.89;68.96
16451;BME280;12243;42.708;23.310;2023-09-12T05:37:53;95297.69;;;16.97;68.05
16451;BME280;12243;42.708;23.310;2023-09-12T05:40:19;95297.69;;;16.97;68.68
16451;BME280;12243;42.708;23.310;2023-09-12T05:42:47;95296.59;;;17.16;67.81
16451;BME280;12243;42.708;23.310;2023-09-12T05:45:13;95297.28;;;17.26;67.46
16451;BME280;12243;42.708;23.310;2023-09-12T05:47:42;95304.22;;;17.44;67.26
16451;BME280;12243;42.708;23.310;2023-09-12T05:50:09;95304.56;;;17.65;65.16
16451;BME280;12243;42.708;23.310;2023-09-12T05:52:37;95298.28;;;17.66;65.16
16451;BME280;12243;42.708;23.310;2023-09-12T05:55:05;95301.44;;;17.78;63.99
16451;BME280;12243;42.708;23.310;2023-09-12T05:57:32;95299.47;;;17.96;63.95
16451;BME280;12243;42.708;23.310;2023-09-12T05:59:59;95295.81;;;18.05;64.03
16451;BME280;12243;42.708;23.310;2023-09-12T06:02:27;95302.38;;;18.26;62.83
16451;BME280;12243;42.708;23.310;2023-09-12T06:04:55;95291.47;;;18.37;62.34
16451;BME280;12243;42.708;23.310;2023-09-12T06:07:22;95294.75;;;18.39;61.76
16451;BME280;12243;42.708;23.310;2023-09-12T06:09:49;95300.84;;;18.40;62.08
16451;BME280;12243;42.708;23.310;2023-09-12T06:12:16;95299.50;;;18.44;62.25
16451;BME280;12243;42.708;23.310;2023-09-12T06:14:43;95296.63;;;18.70;61.51
16451;BME280;12243;42.708;23.310;2023-09-12T06:17:10;95298.19;;;18.95;60.89
16451;BME280;12243;42.708;23.310;2023-09-12T06:19:37;95307.59;;;19.29;59.81
16451;BME280;12243;42.708;23.310;2023-09-12T06:22:06;95309.03;;;19.63;58.73
16451;BME280;12243;42.708;23.310;2023-09-12T06:24:33;95305.72;;;19.84;57.23
16451;BME280;12243;42.708;23.310;2023-09-12T06:27:00;95311.78;;;19.92;56.28
16451;BME280;12243;42.708;23.310;2023-09-12T06:29:26;95317.59;;;19.88;57.06
16451;BME280;12243;42.708;23.310;2023-09-12T06:31:53;95314.53;;;19.99;56.97
16451;BME280;12243;42.708;23.310;2023-09-12T06:34:21;95320.91;;;20.05;56.20
16451;BME280;12243;42.708;23.310;2023-09-12T06:36:48;95311.16;;;20.05;55.55
16451;BME280;12243;42.708;23.310;2023-09-12T06:39:16;95315.22;;;19.93;56.02
16451;BME280;12243;42.708;23.310;2023-09-12T06:41:43;95311.53;;;19.79;56.49
16451;BME280;12243;42.708;23.310;2023-09-12T06:44:10;95316.97;;;20.01;56.99
16451;BME280;12243;42.708;23.310;2023-09-12T06:46:37;95315.66;;;20.19;55.66
16451;BME280;12243;42.708;23.310;2023-09-12T06:49:04;95319.25;;;20.41;55.05
16451;BME280;12243;42.708;23.310;2023-09-12T06:51:31;95318.09;;;20.59;54.12
16451;BME280;12243;42.708;23.310;2023-09-12T06:53:57;95316.63;;;20.86;53.74
16451;BME280;12243;42.708;23.310;2023-09-12T06:56:26;95324.44;;;21.09;52.67
16451;BME280;12243;42.708;23.310;2023-09-12T06:58:53;95321.19;;;21.28;51.78
16451;BME280;12243;42.708;23.310;2023-09-12T07:01:21;95324.47;;;21.30;51.78
16451;BME280;12243;42.708;23.310;2023-09-12T07:03:48;95319.63;;;21.49;50.89
16451;BME280;12243;42.708;23.310;2023-09-12T07:06:19;95325.06;;;21.62;50.23
16451;BME280;12243;42.708;23.310;2023-09-12T07:08:46;95320.38;;;21.64;50.05
16451;BME280;12243;42.708;23.310;2023-09-12T07:11:12;95318.06;;;21.76;50.16
16451;BME280;12243;42.708;23.310;2023-09-12T07:13:41;95329.09;;;21.79;49.91
16451;BME280;12243;42.708;23.310;2023-09-12T07:16:08;95329.19;;;21.93;49.82
16451;BME280;12243;42.708;23.310;2023-09-12T07:18:34;95319.97;;;22.10;47.96
16451;BME280;12243;42.708;23.310;2023-09-12T07:21:04;95321.50;;;21.98;48.06
16451;BME280;12243;42.708;23.310;2023-09-12T07:23:32;95322.53;;;21.97;47.82
16451;BME280;12243;42.708;23.310;2023-09-12T07:25:59;95326.47;;;21.79;48.91
16451;BME280;12243;42.708;23.310;2023-09-12T07:28:28;95327.19;;;21.95;49.11
16451;BME280;12243;42.708;23.310;2023-09-12T07:30:57;95323.78;;;22.22;48.20
16451;BME280;12243;42.708;23.310;2023-09-12T07:33:24;95322.94;;;22.50;46.95
16451;BME280;12243;42.708;23.310;2023-09-12T07:35:52;95322.00;;;22.64;46.45
16451;BME280;12243;42.708;23.310;2023-09-12T07:38:20;95317.25;;;22.88;45.44
16451;BME280;12243;42.708;23.310;2023-09-12T07:40:47;95316.94;;;23.04;45.05
16451;BME280;12243;42.708;23.310;2023-09-12T07:43:14;95322.88;;;23.06;44.97
16451;BME280;12243;42.708;23.310;2023-09-12T07:45:41;95325.44;;;23.34;44.45
16451;BME280;12243;42.708;23.310;2023-09-12T07:48:10;95317.13;;;23.57;44.05
16451;BME280;12243;42.708;23.310;2023-09-12T07:50:37;95312.25;;;23.81;43.35
16451;BME280;12243;42.708;23.310;2023-09-12T07:53:05;95311.25;;;23.95;43.12
16451;BME280;12243;42.708;23.310;2023-09-12T07:55:31;95318.00;;;23.97;42.65
16451;BME280;12243;42.708;23.310;2023-09-12T07:58:01;95307.59;;;23.96;41.58
16451;BME280;12243;42.708;23.310;2023-09-12T08:00:28;95317.19;;;23.84;41.61
16451;BME280;12243;42.708;23.310;2023-09-12T08:02:55;95315.53;;;23.69;40.78
16451;BME280;12243;42.708;23.310;2023-09-12T08:05:24;95307.91;;;23.66;39.68
16451;BME280;12243;42.708;23.310;2023-09-12T08:07:50;95313.50;;;23.78;40.34
16451;BME280;12243;42.708;23.310;2023-09-12T08:10:17;95309.75;;;23.66;41.62
16451;BME280;12243;42.708;23.310;2023-09-12T08:12:44;95305.72;;;23.76;41.32
16451;BME280;12243;42.708;23.310;2023-09-12T08:15:11;95313.47;;;23.85;41.68
16451;BME280;12243;42.708;23.310;2023-09-12T08:17:38;95315.16;;;23.99;41.06
16451;BME280;12243;42.708;23.310;2023-09-12T08:20:08;95307.38;;;24.31;41.20
16451;BME280;12243;42.708;23.310;2023-09-12T08:22:38;95313.94;;;24.48;40.19
16451;BME280;12243;42.708;23.310;2023-09-12T08:25:06;95316.78;;;24.46;40.17
16451;BME280;12243;42.708;23.310;2023-09-12T08:27:33;95311.88;;;24.57;39.49
16451;BME280;12243;42.708;23.310;2023-09-12T08:30:00;95303.69;;;24.58;39.78
16451;BME280;12243;42.708;23.310;2023-09-12T08:32:26;95309.56;;;24.74;39.18
16451;BME280;12243;42.708;23.310;2023-09-12T08:34:53;95304.75;;;25.02;38.77
16451;BME280;12243;42.708;23.310;2023-09-12T08:37:20;95305.13;;;25.26;37.95
16451;BME280;12243;42.708;23.310;2023-09-12T08:39:48;95301.34;;;25.40;37.82
16451;BME280;12243;42.708;23.310;2023-09-12T08:42:18;95300.50;;;25.46;36.56
16451;BME280;12243;42.708;23.310;2023-09-12T08:44:45;95292.91;;;25.50;36.58
16451;BME280;12243;42.708;23.310;2023-09-12T08:47:12;95300.25;;;25.54;36.30
16451;BME280;12243;42.708;23.310;2023-09-12T08:49:40;95294.47;;;25.57;35.93
16451;BME280;12243;42.708;23.310;2023-09-12T08:52:08;95292.75;;;25.70;35.76
16451;BME280;12243;42.708;23.310;2023-09-12T08:54:34;95294.78;;;25.74;35.56
16451;BME280;12243;42.708;23.310;2023-09-12T08:57:04;95291.84;;;25.89;35.65
16451;BME280;12243;42.708;23.310;2023-09-12T08:59:33;95296.41;;;26.07;35.44
16451;BME280;12243;42.708;23.310;2023-09-12T09:02:01;95289.16;;;26.39;34.92
16451;BME280;12243;42.708;23.310;2023-09-12T09:04:30;95292.53;;;26.28;34.61
16451;BME280;12243;42.708;23.310;2023-09-12T09:07:00;95287.19;;;26.28;34.72
16451;BME280;12243;42.708;23.310;2023-09-12T09:09:28;95293.63;;;26.45;34.62
16451;BME280;12243;42.708;23.310;2023-09-12T09:11:55;95291.16;;;26.69;34.72
16451;BME280;12243;42.708;23.310;2023-09-12T09:14:23;95282.56;;;26.85;33.70
16451;BME280;12243;42.708;23.310;2023-09-12T09:16:50;95277.47;;;26.95;33.61
16451;BME280;12243;42.708;23.310;2023-09-12T09:19:17;95276.03;;;26.99;33.64
16451;BME280;12243;42.708;23.310;2023-09-12T09:21:46;95278.97;;;26.91;33.18
16451;BME280;12243;42.708;23.310;2023-09-12T09:24:14;95283.53;;;26.72;33.45
16451;BME280;12243;42.708;23.310;2023-09-12T09:26:43;95272.00;;;26.72;33.82
16451;BME280;12243;42.708;23.310;2023-09-12T09:29:12;95275.34;;;26.86;33.96
16451;BME280;12243;42.708;23.310;2023-09-12T09:31:42;95263.81;;;27.22;33.16
16451;BME280;12243;42.708;23.310;2023-09-12T09:34:13;95261.34;;;27.39;32.71
16451;BME280;12243;42.708;23.310;2023-09-12T09:36:41;95260.38;;;27.63;32.31
16451;BME280;12243;42.708;23.310;2023-09-12T09:39:09;95258.16;;;27.90;32.12
16451;BME280;12243;42.708;23.310;2023-09-12T09:41:36;95248.63;;;28.18;31.40
16451;BME280;12243;42.708;23.310;2023-09-12T09:44:04;95256.19;;;28.09;31.69
16451;BME280;12243;42.708;23.310;2023-09-12T09:46:31;95255.47;;;28.02;31.61
16451;BME280;12243;42.708;23.310;2023-09-12T09:49:00;95261.38;;;27.92;31.61
16451;BME280;12243;42.708;23.310;2023-09-12T09:51:29;95253.81;;;27.89;31.54
16451;BME280;12243;42.708;23.310;2023-09-12T09:53:56;95249.31;;;28.01;31.13
16451;BME280;12243;42.708;23.310;2023-09-12T09:56:24;95248.84;;;28.05;31.80
16451;BME280;12243;42.708;23.310;2023-09-12T09:58:53;95249.31;;;28.01;30.94
16451;BME280;12243;42.708;23.310;2023-09-12T10:01:21;95236.16;;;28.00;31.12
16451;BME280;12243;42.708;23.310;2023-09-12T10:03:49;95238.84;;;28.35;30.83
16451;BME280;12243;42.708;23.310;2023-09-12T10:06:19;95230.06;;;28.75;30.23
16451;BME280;12243;42.708;23.310;2023-09-12T10:08:49;95239.47;;;28.89;30.21
16451;BME280;12243;42.708;23.310;2023-09-12T10:11:18;95235.72;;;29.14;30.11
16451;BME280;12243;42.708;23.310;2023-09-12T10:13:49;95225.03;;;29.31;29.94
16451;BME280;12243;42.708;23.310;2023-09-12T10:16:16;95229.38;;;29.49;29.37
16451;BME280;12243;42.708;23.310;2023-09-12T10:18:49;95230.47;;;29.19;30.10
16451;BME280;12243;42.708;23.310;2023-09-12T10:21:28;95228.59;;;29.19;29.66
16451;BME280;12243;42.708;23.310;2023-09-12T10:23:56;95220.75;;;29.18;29.69
16451;BME280;12243;42.708;23.310;2023-09-12T10:26:24;95220.75;;;29.18;29.97
16451;BME280;12243;42.708;23.310;2023-09-12T10:28:52;95213.91;;;29.10;30.04
16451;BME280;12243;42.708;23.310;2023-09-12T10:31:19;95209.66;;;29.26;29.93
16451;BME280;12243;42.708;23.310;2023-09-12T10:33:46;95216.53;;;29.51;30.30
16451;BME280;12243;42.708;23.310;2023-09-12T10:36:17;95213.59;;;29.64;29.86
16451;BME280;12243;42.708;23.310;2023-09-12T10:38:48;95219.78;;;29.81;29.31
16451;BME280;12243;42.708;23.310;2023-09-12T10:41:15;95206.75;;;29.73;29.40
16451;BME280;12243;42.708;23.310;2023-09-12T10:43:44;95211.78;;;29.70;29.35
16451;BME280;12243;42.708;23.310;2023-09-12T10:46:15;95200.88;;;29.76;29.14
16451;BME280;12243;42.708;23.310;2023-09-12T10:48:42;95203.81;;;29.91;28.76
16451;BME280;12243;42.708;23.310;2023-09-12T10:51:10;95197.28;;;30.04;28.23
16451;BME280;12243;42.708;23.310;2023-09-12T10:53:46;95190.22;;;29.98;28.17
16451;BME280;12243;42.708;23.310;2023-09-12T10:56:18;95191.13;;;30.04;28.30
16451;BME280;12243;42.708;23.310;2023-09-12T10:59:13;95188.66;;;30.19;28.62
16451;BME280;12243;42.708;23.310;2023-09-12T11:01:42;95181.97;;;30.38;28.10
16451;BME280;12243;42.708;23.310;2023-09-12T11:04:30;95173.22;;;30.70;27.79
16451;BME280;12243;42.708;23.310;2023-09-12T11:06:59;95177.63;;;30.98;27.39
16451;BME280;12243;42.708;23.310;2023-09-12T11:09:26;95172.19;;;31.20;26.92
16451;BME280;12243;42.708;23.310;2023-09-12T11:11:58;95170.09;;;31.49;26.67
16451;BME280;12243;42.708;23.310;2023-09-12T11:14:25;95171.09;;;31.70;25.99
16451;BME280;12243;42.708;23.310;2023-09-12T11:17:21;95167.66;;;31.48;26.56
16451;BME280;12243;42.708;23.310;2023-09-12T11:19:49;95170.22;;;31.33;26.52
16451;BME280;12243;42.708;23.310;2023-09-12T11:22:22;95169.06;;;31.28;26.95
16451;BME280;12243;42.708;23.310;2023-09-12T11:24:50;95161.31;;;31.10;26.97
16451;BME280;12243;42.708;23.310;2023-09-12T11:27:17;95168.94;;;30.91;27.37
16451;BME280;12243;42.708;23.310;2023-09-12T11:29:45;95165.47;;;30.96;27.04
16451;BME280;12243;42.708;23.310;2023-09-12T11:32:25;95153.94;;;31.22;26.95
16451;BME280;12243;42.708;23.310;2023-09-12T11:34:52;95157.22;;;31.29;26.63
16451;BME280;12243;42.708;23.310;2023-09-12T11:37:23;95156.16;;;31.30;26.69
16451;BME280;12243;42.708;23.310;2023-09-12T11:39:52;95149.94;;;31.25;26.47
16451;BME280;12243;42.708;23.310;2023-09-12T11:42:19;95151.28;;;31.27;26.71
16451;BME280;12243;42.708;23.310;2023-09-12T11:44:49;95151.47;;;31.43;26.68
16451;BME280;12243;42.708;23.310;2023-09-12T11:47:17;95138.25;;;31.14;26.37
16451;BME280;12243;42.708;23.310;2023-09-12T11:49:44;95141.13;;;31.35;25.99
16451;BME280;12243;42.708;23.310;2023-09-12T11:52:12;95143.84;;;31.35;26.24
16451;BME280;12243;42.708;23.310;2023-09-12T11:54:40;95140.50;;;31.27;25.86
16451;BME280;12243;42.708;23.310;2023-09-12T11:57:10;95134.72;;;30.87;26.76
16451;BME280;12243;42.708;23.310;2023-09-12T11:59:37;95136.34;;;30.88;26.23
16451;BME280;12243;42.708;23.310;2023-09-12T12:02:06;95126.72;;;30.92;26.75
16451;BME280;12243;42.708;23.310;2023-09-12T12:04:34;95128.63;;;31.23;26.62
16451;BME280;12243;42.708;23.310;2023-09-12T12:07:02;95131.03;;;31.47;26.55
16451;BME280;12243;42.708;23.310;2023-09-12T12:09:29;95130.13;;;31.36;25.95
16451;BME280;12243;42.708;23.310;2023-09-12T12:11:56;95122.13;;;31.19;25.81
16451;BME280;12243;42.708;23.310;2023-09-12T12:14:28;95125.81;;;31.08;25.75
16451;BME280;12243;42.708;23.310;2023-09-12T12:16:54;95122.09;;;31.14;25.77
16451;BME280;12243;42.708;23.310;2023-09-12T12:19:22;95130.31;;;31.29;25.59
16451;BME280;12243;42.708;23.310;2023-09-12T12:21:48;95123.38;;;31.34;25.10
16451;BME280;12243;42.708;23.310;2023-09-12T12:24:15;95115.16;;;31.45;25.56
16451;BME280;12243;42.708;23.310;2023-09-12T12:26:42;95114.72;;;31.96;24.98
16451;BME280;12243;42.708;23.310;2023-09-12T12:29:10;95120.88;;;32.34;23.92
16451;BME280;12243;42.708;23.310;2023-09-12T12:31:40;95105.91;;;32.58;24.51
16451;BME280;12243;42.708;23.310;2023-09-12T12:34:07;95113.47;;;32.66;23.14
16451;BME280;12243;42.708;23.310;2023-09-12T12:36:41;95108.00;;;32.46;24.16
16451;BME280;12243;42.708;23.310;2023-09-12T12:39:10;95108.56;;;32.43;24.43
16451;BME280;12243;42.708;23.310;2023-09-12T12:41:37;95117.16;;;32.45;23.88
16451;BME280;12243;42.708;23.310;2023-09-12T12:44:05;95109.47;;;32.79;23.34
16451;BME280;12243;42.708;23.310;2023-09-12T12:46:32;95106.22;;;32.72;22.70
16451;BME280;12243;42.708;23.310;2023-09-12T12:49:00;95107.56;;;32.69;23.40
16451;BME280;12243;42.708;23.310;2023-09-12T12:51:28;95102.78;;;32.92;23.34
16451;BME280;12243;42.708;23.310;2023-09-12T12:54:03;95099.53;;;32.85;22.98
16451;BME280;12243;42.708;23.310;2023-09-12T12:56:30;95089.53;;;32.90;23.45